sensor_id;sensor_type;location;lat;lon;timestamp;P1;durP1;ratioP1;P2;durP2;ratioP2
77158;SDS011;66129;45.890;13.714;2023-10-31T00:00:05;10.50;;;3.00;;
77158;SDS011;66129;45.890;13.714;2023-10-31T00:02:31;7.05;;;2.58;;
77158;SDS011;66129;45.890;13.714;2023-10-31T00:04:56;11.73;;;3.35;;
77158;SDS011;66129;45.890;13.714;2023-10-31T00:07:22;7.13;;;2.63;;
77158;SDS011;66129;45.890;13.714;2023-10-31T00:09:47;7.72;;;3.30;;
77158;SDS011;66129;45.890;13.714;2023-10-31T00:12:13;11.10;;;3.17;;
77158;SDS011;66129;45.890;13.714;2023-10-31T00:14:39;7.65;;;2.80;;
77158;SDS011;66129;45.890;13.714;2023-10-31T00:17:04;10.70;;;2.92;;
77158;SDS011;66129;45.890;13.714;2023-10-31T00:19:30;7.63;;;3.22;;
77158;SDS011;66129;45.890;13.714;2023-10-31T00:21:55;9.25;;;3.10;;
77158;SDS011;66129;45.890;13.714;2023-10-31T00:24:21;6.45;;;2.63;;
77158;SDS011;66129;45.890;13.714;2023-10-31T00:26:46;4.88;;;2.42;;
77158;SDS011;66129;45.890;13.714;2023-10-31T00:29:12;3.10;;;1.67;;
77158;SDS011;66129;45.890;13.714;2023-10-31T00:31:38;5.75;;;1.73;;
77158;SDS011;66129;45.890;13.714;2023-10-31T00:34:06;5.75;;;2.45;;
77158;SDS011;66129;45.890;13.714;2023-10-31T00:36:33;3.42;;;1.48;;
77158;SDS011;66129;45.890;13.714;2023-10-31T00:38:58;7.97;;;2.30;;
77158;SDS011;66129;45.890;13.714;2023-10-31T00:41:24;3.45;;;1.42;;
77158;SDS011;66129;45.890;13.714;2023-10-31T00:43:49;2.08;;;1.30;;
77158;SDS011;66129;45.890;13.714;2023-10-31T00:46:14;2.03;;;1.10;;
77158;SDS011;66129;45.890;13.714;2023-10-31T00:48:40;4.88;;;1.85;;
77158;SDS011;66129;45.890;13.714;2023-10-31T00:51:05;2.63;;;1.40;;
77158;SDS011;66129;45.890;13.714;2023-10-31T00:53:31;2.97;;;1.52;;
77158;SDS011;66129;45.890;13.714;2023-10-31T00:55:57;1.77;;;1.25;;
77158;SDS011;66129;45.890;13.714;2023-10-31T00:58:23;4.40;;;2.00;;
77158;SDS011;66129;45.890;13.714;2023-10-31T01:00:48;3.03;;;1.50;;
77158;SDS011;66129;45.890;13.714;2023-10-31T01:03:14;5.47;;;2.00;;
77158;SDS011;66129;45.890;13.714;2023-10-31T01:05:40;6.32;;;1.55;;
77158;SDS011;66129;45.890;13.714;2023-10-31T01:08:05;10.20;;;1.80;;
77158;SDS011;66129;45.890;13.714;2023-10-31T01:10:31;2.80;;;1.15;;
77158;SDS011;66129;45.890;13.714;2023-10-31T01:12:56;2.13;;;0.82;;
77158;SDS011;66129;45.890;13.714;2023-10-31T01:15:22;2.17;;;0.88;;
77158;SDS011;66129;45.890;13.714;2023-10-31T01:17:47;3.97;;;1.10;;
77158;SDS011;66129;45.890;13.714;2023-10-31T01:20:13;3.33;;;1.00;;
77158;SDS011;66129;45.890;13.714;2023-10-31T01:22:38;6.43;;;1.20;;
77158;SDS011;66129;45.890;13.714;2023-10-31T01:25:04;1.90;;;1.27;;
77158;SDS011;66129;45.890;13.714;2023-10-31T01:27:30;4.95;;;1.60;;
77158;SDS011;66129;45.890;13.714;2023-10-31T01:29:55;7.05;;;1.42;;
77158;SDS011;66129;45.890;13.714;2023-10-31T01:32:21;6.15;;;1.20;;
77158;SDS011;66129;45.890;13.714;2023-10-31T01:34:46;7.88;;;1.95;;
77158;SDS011;66129;45.890;13.714;2023-10-31T01:37:12;3.38;;;1.20;;
77158;SDS011;66129;45.890;13.714;2023-10-31T01:39:39;6.20;;;1.30;;
77158;SDS011;66129;45.890;13.714;2023-10-31T01:42:04;5.95;;;1.42;;
77158;SDS011;66129;45.890;13.714;2023-10-31T01:44:30;3.50;;;1.42;;
77158;SDS011;66129;45.890;13.714;2023-10-31T01:46:55;6.20;;;2.33;;
77158;SDS011;66129;45.890;13.714;2023-10-31T01:49:21;4.25;;;1.48;;
77158;SDS011;66129;45.890;13.714;2023-10-31T01:51:46;4.38;;;1.30;;
77158;SDS011;66129;45.890;13.714;2023-10-31T01:54:13;3.25;;;1.30;;
77158;SDS011;66129;45.890;13.714;2023-10-31T01:56:39;3.15;;;1.40;;
77158;SDS011;66129;45.890;13.714;2023-10-31T01:59:06;6.68;;;1.60;;
77158;SDS011;66129;45.890;13.714;2023-10-31T02:01:32;6.20;;;1.75;;
77158;SDS011;66129;45.890;13.714;2023-10-31T02:04:01;9.60;;;1.92;;
77158;SDS011;66129;45.890;13.714;2023-10-31T02:06:27;5.63;;;1.98;;
77158;SDS011;66129;45.890;13.714;2023-10-31T02:08:55;7.82;;;2.40;;
77158;SDS011;66129;45.890;13.714;2023-10-31T02:11:21;7.22;;;2.30;;
77158;SDS011;66129;45.890;13.714;2023-10-31T02:13:46;4.30;;;1.70;;
77158;SDS011;66129;45.890;13.714;2023-10-31T02:16:12;7.72;;;2.42;;
77158;SDS011;66129;45.890;13.714;2023-10-31T02:18:37;11.02;;;3.17;;
77158;SDS011;66129;45.890;13.714;2023-10-31T02:21:03;7.85;;;2.40;;
77158;SDS011;66129;45.890;13.714;2023-10-31T02:23:28;16.10;;;2.85;;
77158;SDS011;66129;45.890;13.714;2023-10-31T02:25:54;10.57;;;3.13;;
77158;SDS011;66129;45.890;13.714;2023-10-31T02:28:19;17.10;;;4.22;;
77158;SDS011;66129;45.890;13.714;2023-10-31T02:30:45;11.10;;;3.00;;
77158;SDS011;66129;45.890;13.714;2023-10-31T02:33:10;12.85;;;3.20;;
77158;SDS011;66129;45.890;13.714;2023-10-31T02:35:36;8.35;;;2.45;;
77158;SDS011;66129;45.890;13.714;2023-10-31T02:38:01;14.05;;;4.10;;
77158;SDS011;66129;45.890;13.714;2023-10-31T02:40:27;9.35;;;3.08;;
77158;SDS011;66129;45.890;13.714;2023-10-31T02:42:52;7.50;;;2.70;;
77158;SDS011;66129;45.890;13.714;2023-10-31T02:45:18;21.02;;;3.38;;
77158;SDS011;66129;45.890;13.714;2023-10-31T02:47:44;7.25;;;2.80;;
77158;SDS011;66129;45.890;13.714;2023-10-31T02:50:09;13.57;;;3.45;;
77158;SDS011;66129;45.890;13.714;2023-10-31T02:52:35;7.93;;;2.95;;
77158;SDS011;66129;45.890;13.714;2023-10-31T02:55:01;16.67;;;3.85;;
77158;SDS011;66129;45.890;13.714;2023-10-31T02:57:27;15.32;;;3.30;;
77158;SDS011;66129;45.890;13.714;2023-10-31T02:59:52;14.75;;;3.75;;
77158;SDS011;66129;45.890;13.714;2023-10-31T03:02:18;17.92;;;4.22;;
77158;SDS011;66129;45.890;13.714;2023-10-31T03:04:43;15.40;;;3.88;;
77158;SDS011;66129;45.890;13.714;2023-10-31T03:07:09;15.02;;;3.65;;
77158;SDS011;66129;45.890;13.714;2023-10-31T03:09:34;18.85;;;3.83;;
77158;SDS011;66129;45.890;13.714;2023-10-31T03:12:00;21.98;;;3.50;;
77158;SDS011;66129;45.890;13.714;2023-10-31T03:14:25;12.43;;;2.97;;
77158;SDS011;66129;45.890;13.714;2023-10-31T03:16:50;18.77;;;4.18;;
77158;SDS011;66129;45.890;13.714;2023-10-31T03:19:16;25.77;;;4.85;;
77158;SDS011;66129;45.890;13.714;2023-10-31T03:21:41;22.67;;;4.13;;
77158;SDS011;66129;45.890;13.714;2023-10-31T03:24:07;16.08;;;3.75;;
77158;SDS011;66129;45.890;13.714;2023-10-31T03:26:33;19.38;;;3.92;;
77158;SDS011;66129;45.890;13.714;2023-10-31T03:28:58;14.32;;;2.67;;
77158;SDS011;66129;45.890;13.714;2023-10-31T03:31:24;14.07;;;3.50;;
77158;SDS011;66129;45.890;13.714;2023-10-31T03:33:49;18.45;;;5.18;;
77158;SDS011;66129;45.890;13.714;2023-10-31T03:36:15;19.63;;;4.20;;
77158;SDS011;66129;45.890;13.714;2023-10-31T03:38:41;15.80;;;4.65;;
77158;SDS011;66129;45.890;13.714;2023-10-31T03:41:06;25.10;;;3.28;;
77158;SDS011;66129;45.890;13.714;2023-10-31T03:43:33;10.25;;;3.22;;
77158;SDS011;66129;45.890;13.714;2023-10-31T03:45:58;15.73;;;3.45;;
77158;SDS011;66129;45.890;13.714;2023-10-31T03:48:24;7.38;;;2.53;;
77158;SDS011;66129;45.890;13.714;2023-10-31T03:50:49;15.13;;;3.78;;
77158;SDS011;66129;45.890;13.714;2023-10-31T03:53:15;15.65;;;3.75;;
77158;SDS011;66129;45.890;13.714;2023-10-31T03:55:41;14.75;;;4.43;;
77158;SDS011;66129;45.890;13.714;2023-10-31T03:58:06;14.27;;;3.88;;
77158;SDS011;66129;45.890;13.714;2023-10-31T04:00:32;12.10;;;2.75;;
77158;SDS011;66129;45.890;13.714;2023-10-31T04:02:58;13.18;;;3.55;;
77158;SDS011;66129;45.890;13.714;2023-10-31T04:05:23;17.58;;;3.65;;
77158;SDS011;66129;45.890;13.714;2023-10-31T04:07:49;12.18;;;3.28;;
77158;SDS011;66129;45.890;13.714;2023-10-31T04:10:15;15.60;;;3.65;;
77158;SDS011;66129;45.890;13.714;2023-10-31T04:12:41;14.77;;;3.30;;
77158;SDS011;66129;45.890;13.714;2023-10-31T04:15:07;17.50;;;3.70;;
77158;SDS011;66129;45.890;13.714;2023-10-31T04:17:33;11.05;;;2.92;;
77158;SDS011;66129;45.890;13.714;2023-10-31T04:19:59;11.43;;;3.03;;
77158;SDS011;66129;45.890;13.714;2023-10-31T04:22:24;8.90;;;2.70;;
77158;SDS011;66129;45.890;13.714;2023-10-31T04:24:50;14.57;;;3.03;;
77158;SDS011;66129;45.890;13.714;2023-10-31T04:27:16;8.73;;;2.42;;
77158;SDS011;66129;45.890;13.714;2023-10-31T04:29:41;6.90;;;2.95;;
77158;SDS011;66129;45.890;13.714;2023-10-31T04:32:07;15.30;;;4.55;;
77158;SDS011;66129;45.890;13.714;2023-10-31T04:34:32;12.73;;;2.92;;
77158;SDS011;66129;45.890;13.714;2023-10-31T04:36:58;13.73;;;2.90;;
77158;SDS011;66129;45.890;13.714;2023-10-31T04:39:23;10.48;;;2.88;;
77158;SDS011;66129;45.890;13.714;2023-10-31T04:41:49;18.17;;;3.60;;
77158;SDS011;66129;45.890;13.714;2023-10-31T04:44:14;15.70;;;3.08;;
77158;SDS011;66129;45.890;13.714;2023-10-31T04:46:41;11.45;;;2.88;;
77158;SDS011;66129;45.890;13.714;2023-10-31T04:49:07;9.60;;;2.95;;
77158;SDS011;66129;45.890;13.714;2023-10-31T04:51:35;15.45;;;2.92;;
77158;SDS011;66129;45.890;13.714;2023-10-31T04:54:01;10.25;;;2.63;;
77158;SDS011;66129;45.890;13.714;2023-10-31T04:56:27;5.82;;;3.05;;
77158;SDS011;66129;45.890;13.714;2023-10-31T04:58:53;12.98;;;3.35;;
77158;SDS011;66129;45.890;13.714;2023-10-31T05:01:18;3.83;;;1.40;;
77158;SDS011;66129;45.890;13.714;2023-10-31T05:03:44;10.57;;;2.58;;
77158;SDS011;66129;45.890;13.714;2023-10-31T05:06:10;14.00;;;2.40;;
77158;SDS011;66129;45.890;13.714;2023-10-31T05:08:35;8.20;;;2.20;;
77158;SDS011;66129;45.890;13.714;2023-10-31T05:11:01;7.95;;;2.58;;
77158;SDS011;66129;45.890;13.714;2023-10-31T05:13:26;17.33;;;2.72;;
77158;SDS011;66129;45.890;13.714;2023-10-31T05:15:52;5.03;;;2.17;;
77158;SDS011;66129;45.890;13.714;2023-10-31T05:18:17;9.00;;;2.63;;
77158;SDS011;66129;45.890;13.714;2023-10-31T05:20:43;7.40;;;3.25;;
77158;SDS011;66129;45.890;13.714;2023-10-31T05:23:08;12.65;;;2.97;;
77158;SDS011;66129;45.890;13.714;2023-10-31T05:25:34;14.57;;;2.85;;
77158;SDS011;66129;45.890;13.714;2023-10-31T05:28:00;9.38;;;1.90;;
77158;SDS011;66129;45.890;13.714;2023-10-31T05:30:26;7.70;;;2.38;;
77158;SDS011;66129;45.890;13.714;2023-10-31T05:32:52;7.40;;;2.65;;
77158;SDS011;66129;45.890;13.714;2023-10-31T05:35:17;7.55;;;2.63;;
77158;SDS011;66129;45.890;13.714;2023-10-31T05:37:45;7.88;;;2.40;;
77158;SDS011;66129;45.890;13.714;2023-10-31T05:40:11;10.60;;;2.33;;
77158;SDS011;66129;45.890;13.714;2023-10-31T05:42:36;10.13;;;2.17;;
77158;SDS011;66129;45.890;13.714;2023-10-31T05:45:02;9.52;;;2.72;;
77158;SDS011;66129;45.890;13.714;2023-10-31T05:47:28;11.00;;;2.70;;
77158;SDS011;66129;45.890;13.714;2023-10-31T05:49:53;10.20;;;4.68;;
77158;SDS011;66129;45.890;13.714;2023-10-31T05:52:19;7.45;;;2.10;;
77158;SDS011;66129;45.890;13.714;2023-10-31T05:54:44;8.88;;;2.10;;
77158;SDS011;66129;45.890;13.714;2023-10-31T05:57:10;7.60;;;2.08;;
77158;SDS011;66129;45.890;13.714;2023-10-31T05:59:35;6.78;;;1.70;;
77158;SDS011;66129;45.890;13.714;2023-10-31T06:02:00;5.40;;;1.67;;
77158;SDS011;66129;45.890;13.714;2023-10-31T06:04:26;9.15;;;2.58;;
77158;SDS011;66129;45.890;13.714;2023-10-31T06:06:51;7.50;;;1.95;;
77158;SDS011;66129;45.890;13.714;2023-10-31T06:09:17;9.18;;;2.53;;
77158;SDS011;66129;45.890;13.714;2023-10-31T06:11:42;8.10;;;2.47;;
77158;SDS011;66129;45.890;13.714;2023-10-31T06:14:09;6.07;;;1.48;;
77158;SDS011;66129;45.890;13.714;2023-10-31T06:16:42;9.85;;;2.22;;
77158;SDS011;66129;45.890;13.714;2023-10-31T06:19:09;4.28;;;1.80;;
77158;SDS011;66129;45.890;13.714;2023-10-31T06:21:35;5.78;;;1.88;;
77158;SDS011;66129;45.890;13.714;2023-10-31T06:24:01;7.28;;;2.05;;
77158;SDS011;66129;45.890;13.714;2023-10-31T06:26:27;12.80;;;2.35;;
77158;SDS011;66129;45.890;13.714;2023-10-31T06:28:53;5.03;;;1.17;;
77158;SDS011;66129;45.890;13.714;2023-10-31T06:31:18;3.63;;;1.35;;
77158;SDS011;66129;45.890;13.714;2023-10-31T06:33:43;3.65;;;1.17;;
77158;SDS011;66129;45.890;13.714;2023-10-31T06:36:09;9.85;;;2.08;;
77158;SDS011;66129;45.890;13.714;2023-10-31T06:38:34;7.10;;;2.03;;
77158;SDS011;66129;45.890;13.714;2023-10-31T06:41:00;5.25;;;1.83;;
77158;SDS011;66129;45.890;13.714;2023-10-31T06:43:25;4.00;;;2.65;;
77158;SDS011;66129;45.890;13.714;2023-10-31T06:45:52;5.15;;;2.03;;
77158;SDS011;66129;45.890;13.714;2023-10-31T06:48:18;5.45;;;1.20;;
77158;SDS011;66129;45.890;13.714;2023-10-31T06:50:43;2.00;;;1.10;;
77158;SDS011;66129;45.890;13.714;2023-10-31T06:53:09;7.38;;;1.13;;
77158;SDS011;66129;45.890;13.714;2023-10-31T06:55:34;6.55;;;2.10;;
77158;SDS011;66129;45.890;13.714;2023-10-31T06:58:00;3.83;;;1.90;;
77158;SDS011;66129;45.890;13.714;2023-10-31T07:00:25;22.73;;;10.50;;
77158;SDS011;66129;45.890;13.714;2023-10-31T07:02:50;9.25;;;2.78;;
77158;SDS011;66129;45.890;13.714;2023-10-31T07:05:16;13.88;;;6.07;;
77158;SDS011;66129;45.890;13.714;2023-10-31T07:07:45;9.75;;;5.10;;
77158;SDS011;66129;45.890;13.714;2023-10-31T07:10:11;10.07;;;4.65;;
77158;SDS011;66129;45.890;13.714;2023-10-31T07:12:36;10.82;;;2.30;;
77158;SDS011;66129;45.890;13.714;2023-10-31T07:15:02;8.02;;;2.30;;
77158;SDS011;66129;45.890;13.714;2023-10-31T07:17:28;4.90;;;2.88;;
77158;SDS011;66129;45.890;13.714;2023-10-31T07:19:55;7.65;;;2.42;;
77158;SDS011;66129;45.890;13.714;2023-10-31T07:22:20;9.25;;;1.75;;
77158;SDS011;66129;45.890;13.714;2023-10-31T07:24:47;7.53;;;1.85;;
77158;SDS011;66129;45.890;13.714;2023-10-31T07:27:13;3.20;;;0.93;;
77158;SDS011;66129;45.890;13.714;2023-10-31T07:29:39;3.88;;;1.17;;
77158;SDS011;66129;45.890;13.714;2023-10-31T07:32:05;5.25;;;1.55;;
77158;SDS011;66129;45.890;13.714;2023-10-31T07:34:31;5.75;;;2.72;;
77158;SDS011;66129;45.890;13.714;2023-10-31T07:36:57;6.07;;;1.55;;
77158;SDS011;66129;45.890;13.714;2023-10-31T07:39:22;9.93;;;1.55;;
77158;SDS011;66129;45.890;13.714;2023-10-31T07:41:48;7.43;;;1.90;;
77158;SDS011;66129;45.890;13.714;2023-10-31T07:44:13;2.67;;;1.20;;
77158;SDS011;66129;45.890;13.714;2023-10-31T07:46:38;3.45;;;1.38;;
77158;SDS011;66129;45.890;13.714;2023-10-31T07:49:04;6.03;;;1.35;;
77158;SDS011;66129;45.890;13.714;2023-10-31T07:51:29;8.65;;;1.40;;
77158;SDS011;66129;45.890;13.714;2023-10-31T07:53:55;5.47;;;1.92;;
77158;SDS011;66129;45.890;13.714;2023-10-31T07:56:23;9.63;;;1.60;;
77158;SDS011;66129;45.890;13.714;2023-10-31T07:58:50;4.05;;;1.13;;
77158;SDS011;66129;45.890;13.714;2023-10-31T08:01:19;2.88;;;1.35;;
77158;SDS011;66129;45.890;13.714;2023-10-31T08:03:45;9.07;;;2.00;;
77158;SDS011;66129;45.890;13.714;2023-10-31T08:06:12;3.45;;;1.35;;
77158;SDS011;66129;45.890;13.714;2023-10-31T08:08:38;6.07;;;2.10;;
77158;SDS011;66129;45.890;13.714;2023-10-31T08:11:03;7.70;;;2.72;;
77158;SDS011;66129;45.890;13.714;2023-10-31T08:13:32;3.75;;;1.40;;
77158;SDS011;66129;45.890;13.714;2023-10-31T08:15:58;8.57;;;1.73;;
77158;SDS011;66129;45.890;13.714;2023-10-31T08:18:23;9.13;;;2.28;;
77158;SDS011;66129;45.890;13.714;2023-10-31T08:20:49;5.00;;;1.60;;
77158;SDS011;66129;45.890;13.714;2023-10-31T08:23:16;7.97;;;2.65;;
77158;SDS011;66129;45.890;13.714;2023-10-31T08:25:43;5.53;;;2.15;;
77158;SDS011;66129;45.890;13.714;2023-10-31T08:28:08;8.45;;;2.55;;
77158;SDS011;66129;45.890;13.714;2023-10-31T08:30:34;7.78;;;1.92;;
77158;SDS011;66129;45.890;13.714;2023-10-31T08:33:00;3.17;;;1.80;;
77158;SDS011;66129;45.890;13.714;2023-10-31T08:35:26;6.28;;;1.88;;
77158;SDS011;66129;45.890;13.714;2023-10-31T08:37:51;8.43;;;2.05;;
77158;SDS011;66129;45.890;13.714;2023-10-31T08:40:17;3.97;;;1.73;;
77158;SDS011;66129;45.890;13.714;2023-10-31T08:42:43;9.63;;;1.70;;
77158;SDS011;66129;45.890;13.714;2023-10-31T08:45:09;5.20;;;1.70;;
77158;SDS011;66129;45.890;13.714;2023-10-31T08:47:34;6.45;;;1.63;;
77158;SDS011;66129;45.890;13.714;2023-10-31T08:50:00;3.50;;;1.17;;
77158;SDS011;66129;45.890;13.714;2023-10-31T08:52:25;3.78;;;1.38;;
77158;SDS011;66129;45.890;13.714;2023-10-31T08:54:51;4.60;;;1.52;;
77158;SDS011;66129;45.890;13.714;2023-10-31T08:57:16;8.35;;;1.80;;
77158;SDS011;66129;45.890;13.714;2023-10-31T08:59:42;5.82;;;1.70;;
77158;SDS011;66129;45.890;13.714;2023-10-31T09:02:08;8.15;;;1.90;;
77158;SDS011;66129;45.890;13.714;2023-10-31T09:04:39;8.10;;;1.63;;
77158;SDS011;66129;45.890;13.714;2023-10-31T09:07:04;10.43;;;2.08;;
77158;SDS011;66129;45.890;13.714;2023-10-31T09:09:30;7.63;;;2.50;;
77158;SDS011;66129;45.890;13.714;2023-10-31T09:11:56;7.72;;;2.22;;
77158;SDS011;66129;45.890;13.714;2023-10-31T09:14:21;3.83;;;1.23;;
77158;SDS011;66129;45.890;13.714;2023-10-31T09:16:47;13.63;;;1.98;;
77158;SDS011;66129;45.890;13.714;2023-10-31T09:19:12;4.82;;;1.85;;
77158;SDS011;66129;45.890;13.714;2023-10-31T09:21:38;7.57;;;2.15;;
77158;SDS011;66129;45.890;13.714;2023-10-31T09:24:05;5.20;;;1.60;;
77158;SDS011;66129;45.890;13.714;2023-10-31T09:26:32;6.72;;;2.03;;
77158;SDS011;66129;45.890;13.714;2023-10-31T09:28:58;8.15;;;2.30;;
77158;SDS011;66129;45.890;13.714;2023-10-31T09:31:24;6.07;;;1.33;;
77158;SDS011;66129;45.890;13.714;2023-10-31T09:33:49;11.30;;;2.97;;
77158;SDS011;66129;45.890;13.714;2023-10-31T09:36:15;4.53;;;1.10;;
77158;SDS011;66129;45.890;13.714;2023-10-31T09:38:41;5.38;;;1.40;;
77158;SDS011;66129;45.890;13.714;2023-10-31T09:41:07;4.15;;;1.80;;
77158;SDS011;66129;45.890;13.714;2023-10-31T09:43:32;5.68;;;1.23;;
77158;SDS011;66129;45.890;13.714;2023-10-31T09:45:58;6.20;;;1.60;;
77158;SDS011;66129;45.890;13.714;2023-10-31T09:48:25;3.95;;;1.25;;
77158;SDS011;66129;45.890;13.714;2023-10-31T09:50:51;5.32;;;1.20;;
77158;SDS011;66129;45.890;13.714;2023-10-31T09:53:18;3.67;;;1.45;;
77158;SDS011;66129;45.890;13.714;2023-10-31T09:55:45;6.65;;;2.47;;
77158;SDS011;66129;45.890;13.714;2023-10-31T09:58:11;6.10;;;1.33;;
77158;SDS011;66129;45.890;13.714;2023-10-31T10:00:37;1.70;;;1.00;;
77158;SDS011;66129;45.890;13.714;2023-10-31T10:03:06;3.95;;;1.30;;
77158;SDS011;66129;45.890;13.714;2023-10-31T10:05:33;4.93;;;1.20;;
77158;SDS011;66129;45.890;13.714;2023-10-31T10:08:00;4.82;;;1.08;;
77158;SDS011;66129;45.890;13.714;2023-10-31T10:10:26;5.32;;;0.98;;
77158;SDS011;66129;45.890;13.714;2023-10-31T10:13:45;6.78;;;1.13;;
77158;SDS011;66129;45.890;13.714;2023-10-31T10:16:11;3.22;;;0.80;;
77158;SDS011;66129;45.890;13.714;2023-10-31T10:18:36;2.65;;;0.75;;
77158;SDS011;66129;45.890;13.714;2023-10-31T10:21:06;3.33;;;0.90;;
77158;SDS011;66129;45.890;13.714;2023-10-31T10:23:33;3.75;;;0.98;;
77158;SDS011;66129;45.890;13.714;2023-10-31T10:25:59;6.90;;;1.98;;
77158;SDS011;66129;45.890;13.714;2023-10-31T10:28:25;6.43;;;1.00;;
77158;SDS011;66129;45.890;13.714;2023-10-31T10:30:53;4.30;;;0.98;;
77158;SDS011;66129;45.890;13.714;2023-10-31T10:33:20;3.30;;;0.90;;
77158;SDS011;66129;45.890;13.714;2023-10-31T10:35:46;4.43;;;0.85;;
77158;SDS011;66129;45.890;13.714;2023-10-31T10:38:13;4.18;;;1.00;;
77158;SDS011;66129;45.890;13.714;2023-10-31T10:40:41;9.57;;;1.80;;
77158;SDS011;66129;45.890;13.714;2023-10-31T10:43:24;6.03;;;1.42;;
77158;SDS011;66129;45.890;13.714;2023-10-31T10:45:54;5.03;;;1.27;;
77158;SDS011;66129;45.890;13.714;2023-10-31T10:48:27;6.53;;;1.33;;
77158;SDS011;66129;45.890;13.714;2023-10-31T10:51:00;6.18;;;1.27;;
77158;SDS011;66129;45.890;13.714;2023-10-31T10:53:30;9.88;;;1.88;;
77158;SDS011;66129;45.890;13.714;2023-10-31T10:56:03;5.22;;;2.05;;
77158;SDS011;66129;45.890;13.714;2023-10-31T10:58:51;4.38;;;0.90;;
77158;SDS011;66129;45.890;13.714;2023-10-31T11:01:20;2.75;;;0.90;;
77158;SDS011;66129;45.890;13.714;2023-10-31T11:03:46;4.65;;;1.33;;
77158;SDS011;66129;45.890;13.714;2023-10-31T11:06:12;7.90;;;1.33;;
77158;SDS011;66129;45.890;13.714;2023-10-31T11:08:38;4.50;;;1.40;;
77158;SDS011;66129;45.890;13.714;2023-10-31T11:11:05;4.65;;;1.02;;
77158;SDS011;66129;45.890;13.714;2023-10-31T11:13:31;9.13;;;1.25;;
77158;SDS011;66129;45.890;13.714;2023-10-31T11:15:57;5.38;;;1.13;;
77158;SDS011;66129;45.890;13.714;2023-10-31T11:18:27;1.42;;;0.82;;
77158;SDS011;66129;45.890;13.714;2023-10-31T11:20:52;3.17;;;1.38;;
77158;SDS011;66129;45.890;13.714;2023-10-31T11:23:18;2.95;;;0.47;;
77158;SDS011;66129;45.890;13.714;2023-10-31T11:25:44;1.38;;;0.68;;
77158;SDS011;66129;45.890;13.714;2023-10-31T11:28:10;1.70;;;0.40;;
77158;SDS011;66129;45.890;13.714;2023-10-31T11:30:38;3.50;;;0.85;;
77158;SDS011;66129;45.890;13.714;2023-10-31T11:33:03;0.95;;;0.32;;
77158;SDS011;66129;45.890;13.714;2023-10-31T11:35:30;3.70;;;0.80;;
77158;SDS011;66129;45.890;13.714;2023-10-31T11:38:06;1.70;;;0.77;;
77158;SDS011;66129;45.890;13.714;2023-10-31T11:40:32;2.60;;;0.88;;
77158;SDS011;66129;45.890;13.714;2023-10-31T11:43:01;1.63;;;0.70;;
77158;SDS011;66129;45.890;13.714;2023-10-31T11:48:02;3.08;;;1.10;;
77158;SDS011;66129;45.890;13.714;2023-10-31T11:50:30;5.25;;;0.73;;
77158;SDS011;66129;45.890;13.714;2023-10-31T11:53:00;0.90;;;0.47;;
77158;SDS011;66129;45.890;13.714;2023-10-31T11:55:36;1.88;;;0.40;;
77158;SDS011;66129;45.890;13.714;2023-10-31T11:58:17;1.38;;;0.22;;
77158;SDS011;66129;45.890;13.714;2023-10-31T12:01:00;3.28;;;0.63;;
77158;SDS011;66129;45.890;13.714;2023-10-31T12:03:28;4.63;;;1.15;;
77158;SDS011;66129;45.890;13.714;2023-10-31T12:06:03;3.75;;;1.10;;
77158;SDS011;66129;45.890;13.714;2023-10-31T12:08:29;4.03;;;0.80;;
77158;SDS011;66129;45.890;13.714;2023-10-31T12:13:37;6.15;;;0.80;;
77158;SDS011;66129;45.890;13.714;2023-10-31T12:16:06;3.90;;;1.10;;
77158;SDS011;66129;45.890;13.714;2023-10-31T12:18:34;2.67;;;0.73;;
77158;SDS011;66129;45.890;13.714;2023-10-31T12:21:00;4.53;;;0.82;;
77158;SDS011;66129;45.890;13.714;2023-10-31T12:23:26;3.72;;;0.95;;
77158;SDS011;66129;45.890;13.714;2023-10-31T12:25:52;2.25;;;0.55;;
77158;SDS011;66129;45.890;13.714;2023-10-31T12:28:22;1.40;;;0.75;;
77158;SDS011;66129;45.890;13.714;2023-10-31T12:30:50;3.78;;;1.70;;
77158;SDS011;66129;45.890;13.714;2023-10-31T12:33:19;3.90;;;1.10;;
77158;SDS011;66129;45.890;13.714;2023-10-31T12:35:45;5.18;;;1.20;;
77158;SDS011;66129;45.890;13.714;2023-10-31T12:38:12;9.98;;;1.40;;
77158;SDS011;66129;45.890;13.714;2023-10-31T12:40:38;2.05;;;0.70;;
77158;SDS011;66129;45.890;13.714;2023-10-31T12:43:04;4.30;;;0.95;;
77158;SDS011;66129;45.890;13.714;2023-10-31T12:45:31;5.47;;;1.00;;
77158;SDS011;66129;45.890;13.714;2023-10-31T12:48:14;9.35;;;1.58;;
77158;SDS011;66129;45.890;13.714;2023-10-31T12:50:40;6.95;;;0.90;;
77158;SDS011;66129;45.890;13.714;2023-10-31T12:53:06;5.45;;;1.20;;
77158;SDS011;66129;45.890;13.714;2023-10-31T12:55:37;3.60;;;1.65;;
77158;SDS011;66129;45.890;13.714;2023-10-31T12:58:04;6.65;;;1.33;;
77158;SDS011;66129;45.890;13.714;2023-10-31T13:00:34;4.93;;;1.13;;
77158;SDS011;66129;45.890;13.714;2023-10-31T13:03:00;2.42;;;0.70;;
77158;SDS011;66129;45.890;13.714;2023-10-31T13:05:27;1.55;;;0.85;;
77158;SDS011;66129;45.890;13.714;2023-10-31T13:07:54;1.33;;;0.68;;
77158;SDS011;66129;45.890;13.714;2023-10-31T13:10:24;0.95;;;0.50;;
77158;SDS011;66129;45.890;13.714;2023-10-31T13:12:54;6.05;;;1.05;;
77158;SDS011;66129;45.890;13.714;2023-10-31T13:15:21;5.13;;;1.90;;
77158;SDS011;66129;45.890;13.714;2023-10-31T13:17:48;4.80;;;1.02;;
77158;SDS011;66129;45.890;13.714;2023-10-31T13:20:17;1.13;;;0.52;;
77158;SDS011;66129;45.890;13.714;2023-10-31T13:22:45;10.40;;;2.92;;
77158;SDS011;66129;45.890;13.714;2023-10-31T13:25:11;6.47;;;1.85;;
77158;SDS011;66129;45.890;13.714;2023-10-31T13:27:39;7.65;;;1.52;;
77158;SDS011;66129;45.890;13.714;2023-10-31T13:30:09;6.25;;;2.30;;
77158;SDS011;66129;45.890;13.714;2023-10-31T13:32:38;4.05;;;1.08;;
77158;SDS011;66129;45.890;13.714;2023-10-31T13:35:05;5.10;;;1.00;;
77158;SDS011;66129;45.890;13.714;2023-10-31T13:37:31;5.38;;;2.05;;
77158;SDS011;66129;45.890;13.714;2023-10-31T13:39:56;4.80;;;2.25;;
77158;SDS011;66129;45.890;13.714;2023-10-31T13:42:22;4.25;;;0.75;;
77158;SDS011;66129;45.890;13.714;2023-10-31T13:44:47;1.45;;;0.75;;
77158;SDS011;66129;45.890;13.714;2023-10-31T13:47:14;5.35;;;2.10;;
77158;SDS011;66129;45.890;13.714;2023-10-31T13:49:39;1.75;;;1.13;;
77158;SDS011;66129;45.890;13.714;2023-10-31T13:52:05;2.70;;;1.40;;
77158;SDS011;66129;45.890;13.714;2023-10-31T13:54:34;10.38;;;3.92;;
77158;SDS011;66129;45.890;13.714;2023-10-31T13:57:00;5.40;;;0.90;;
77158;SDS011;66129;45.890;13.714;2023-10-31T13:59:26;5.05;;;1.23;;
77158;SDS011;66129;45.890;13.714;2023-10-31T14:01:52;2.92;;;0.65;;
77158;SDS011;66129;45.890;13.714;2023-10-31T14:04:18;4.93;;;0.93;;
77158;SDS011;66129;45.890;13.714;2023-10-31T14:06:44;2.63;;;0.88;;
77158;SDS011;66129;45.890;13.714;2023-10-31T14:09:10;3.83;;;1.15;;
77158;SDS011;66129;45.890;13.714;2023-10-31T14:11:36;6.40;;;1.70;;
77158;SDS011;66129;45.890;13.714;2023-10-31T14:14:03;3.50;;;1.38;;
77158;SDS011;66129;45.890;13.714;2023-10-31T14:16:32;0.95;;;0.32;;
77158;SDS011;66129;45.890;13.714;2023-10-31T14:18:58;3.45;;;0.68;;
77158;SDS011;66129;45.890;13.714;2023-10-31T14:21:24;2.50;;;0.70;;
77158;SDS011;66129;45.890;13.714;2023-10-31T14:23:51;3.58;;;0.70;;
77158;SDS011;66129;45.890;13.714;2023-10-31T14:26:22;2.22;;;0.60;;
77158;SDS011;66129;45.890;13.714;2023-10-31T14:28:48;2.90;;;1.08;;
77158;SDS011;66129;45.890;13.714;2023-10-31T14:31:14;3.95;;;1.20;;